Terminal Aerodrome Forecast
Issued by NWS

Home | Current Version | Previous Version | Text Only | Print | Product List | Glossary On
Versions: 1 2 3 4 5 6 7 8 9 10 11 12 13 14 15 16 17 18 19 20 21 22
000
FTUS45 KREV 281100
TAFRNO
TAF
KRNO 281120Z 2812/2912 05006KT P6SM FEW200
     FM281800 19010G18KT P6SM SCT200
     FM282000 21022G37KT P6SM FEW120 SCT200
     FM290200 20012G23KT P6SM SCT120 BKN200 WS020/25040KT
     FM290700 19009G18KT P6SM SCT100 BKN160=

USA.gov is the U.S. government's official web portal to all federal, state and local government web resources and services.